createdAt,value
2023-05-03T00:00:40.364Z,15.43
2023-05-03T00:03:08.294Z,9.90
2023-05-03T00:05:36.087Z,9.90
2023-05-03T00:08:04.707Z,7.93
2023-05-03T00:10:32.565Z,12.10
2023-05-03T00:13:00.616Z,16.67
2023-05-03T00:15:28.770Z,8.23
2023-05-03T00:17:58.183Z,7.20
2023-05-03T00:20:26.577Z,13.10
2023-05-03T00:22:54.471Z,9.33
2023-05-03T00:25:22.430Z,6.93
2023-05-03T00:27:50.456Z,14.40
2023-05-03T00:30:19.484Z,11.53
2023-05-03T00:32:47.328Z,12.23
2023-05-03T00:35:16.915Z,10.07
2023-05-03T00:37:44.823Z,7.93
2023-05-03T00:40:13.381Z,10.33
2023-05-03T00:42:41.152Z,7.63
2023-05-03T00:45:09.242Z,7.80
2023-05-03T00:47:37.652Z,5.60
2023-05-03T00:50:06.283Z,10.83
2023-05-03T00:52:36.111Z,7.43
2023-05-03T00:55:03.761Z,10.77
2023-05-03T00:57:32.854Z,8.80
2023-05-03T01:00:01.183Z,8.13
2023-05-03T01:02:29.974Z,15.70
2023-05-03T01:04:58.178Z,4.17
2023-05-03T01:07:33.667Z,6.03
2023-05-03T01:10:09.277Z,8.30
2023-05-03T01:12:43.081Z,7.37
2023-05-03T01:15:15.484Z,7.70
2023-05-03T01:17:49.340Z,10.13
2023-05-03T01:20:18.802Z,6.93
2023-05-03T01:22:48.298Z,10.60
2023-05-03T01:25:17.768Z,6.23
2023-05-03T01:27:45.861Z,8.17
2023-05-03T01:30:13.986Z,10.67
2023-05-03T01:32:47.360Z,7.43
2023-05-03T01:35:20.337Z,7.80
2023-05-03T01:37:49.314Z,7.87
2023-05-03T01:40:19.764Z,11.87
2023-05-03T01:42:48.993Z,11.00
2023-05-03T01:45:17.235Z,9.37
2023-05-03T01:47:44.988Z,9.13
2023-05-03T01:50:12.978Z,8.60
2023-05-03T01:52:41.574Z,10.70
2023-05-03T01:55:09.708Z,8.17
2023-05-03T01:57:39.208Z,9.00
2023-05-03T02:00:08.117Z,8.83
2023-05-03T02:02:40.541Z,5.93
2023-05-03T02:05:08.969Z,8.10
2023-05-03T02:07:36.685Z,8.73
2023-05-03T02:10:05.242Z,9.00
2023-05-03T02:12:33.442Z,9.83
2023-05-03T02:15:02.755Z,7.50
2023-05-03T02:17:30.665Z,8.73
2023-05-03T02:19:58.735Z,11.43
2023-05-03T02:22:26.751Z,8.30
2023-05-03T02:24:55.875Z,8.60
2023-05-03T02:27:24.796Z,11.70
2023-05-03T02:29:52.777Z,7.37
2023-05-03T02:32:21.994Z,8.73
2023-05-03T02:34:50.706Z,8.33
2023-05-03T02:37:21.635Z,6.90
2023-05-03T02:39:50.216Z,8.90
2023-05-03T02:42:18.403Z,9.83
2023-05-03T02:44:46.526Z,12.40
2023-05-03T02:47:14.350Z,6.30
2023-05-03T02:49:44.950Z,8.83
2023-05-03T02:52:14.591Z,8.30
2023-05-03T02:54:42.404Z,8.50
2023-05-03T02:57:12.790Z,8.20
2023-05-03T02:59:41.370Z,7.27
2023-05-03T03:02:09.153Z,7.27
2023-05-03T03:04:38.540Z,11.23
2023-05-03T03:07:08.107Z,11.50
2023-05-03T03:09:36.888Z,8.23
2023-05-03T03:12:04.698Z,15.23
2023-05-03T03:14:34.049Z,11.80
2023-05-03T03:17:01.873Z,10.80
2023-05-03T03:19:29.956Z,11.80
2023-05-03T03:21:59.038Z,7.70
2023-05-03T03:24:28.706Z,11.90
2023-05-03T03:26:56.691Z,9.83
2023-05-03T03:29:25.812Z,11.47
2023-05-03T03:31:54.082Z,9.33
2023-05-03T03:34:22.102Z,11.73
2023-05-03T03:36:50.259Z,8.63
2023-05-03T03:39:18.406Z,10.90
2023-05-03T03:41:49.599Z,9.83
2023-05-03T03:44:17.726Z,8.63
2023-05-03T03:46:45.570Z,11.73
2023-05-03T03:49:13.654Z,10.00
2023-05-03T03:51:41.995Z,9.67
2023-05-03T03:54:12.005Z,9.80
2023-05-03T03:56:44.588Z,8.50
2023-05-03T03:59:13.798Z,9.07
2023-05-03T04:01:42.173Z,7.77
2023-05-03T04:04:11.810Z,10.83
2023-05-03T04:06:39.759Z,8.83
2023-05-03T04:09:11.842Z,11.67
2023-05-03T04:11:39.776Z,5.73
2023-05-03T04:14:08.715Z,8.70
2023-05-03T04:16:38.786Z,11.43
2023-05-03T04:19:07.974Z,10.73
2023-05-03T04:21:39.476Z,10.40
2023-05-03T04:24:07.901Z,8.67
2023-05-03T04:26:36.505Z,10.00
2023-05-03T04:29:11.715Z,11.33
2023-05-03T04:31:41.795Z,10.00
2023-05-03T04:34:10.512Z,9.30
2023-05-03T04:36:39.124Z,10.40
2023-05-03T04:39:11.381Z,8.80
2023-05-03T04:41:39.666Z,11.43
2023-05-03T04:44:08.726Z,12.83
2023-05-03T04:46:36.708Z,14.53
2023-05-03T04:49:06.257Z,10.03
2023-05-03T04:51:34.168Z,11.63
2023-05-03T04:54:01.984Z,8.63
2023-05-03T04:56:32.702Z,11.20
2023-05-03T04:59:10.657Z,9.43
2023-05-03T05:01:39.044Z,11.03
2023-05-03T05:04:09.968Z,9.73
2023-05-03T05:07:00.323Z,10.00
2023-05-03T05:09:31.734Z,10.70
2023-05-03T05:12:04.300Z,11.30
2023-05-03T05:14:38.465Z,13.27
2023-05-03T05:17:08.872Z,15.73
2023-05-03T05:19:38.475Z,13.80
2023-05-03T05:22:07.039Z,15.53
2023-05-03T05:24:45.942Z,9.37
2023-05-03T05:27:15.295Z,8.47
2023-05-03T05:29:43.876Z,10.20
2023-05-03T05:32:12.962Z,7.93
2023-05-03T05:34:45.102Z,12.37
2023-05-03T05:37:17.843Z,9.07
2023-05-03T05:39:47.050Z,9.57
2023-05-03T05:42:16.661Z,8.33
2023-05-03T05:44:44.594Z,7.50
2023-05-03T05:47:12.324Z,10.27
2023-05-03T05:49:42.709Z,7.23
2023-05-03T05:52:12.460Z,8.43
2023-05-03T05:54:41.047Z,10.47
2023-05-03T05:57:08.807Z,14.67
2023-05-03T05:59:39.057Z,13.03
2023-05-03T06:02:09.320Z,9.13
2023-05-03T06:04:37.304Z,10.27
2023-05-03T06:07:06.452Z,7.60
2023-05-03T06:09:34.523Z,17.53
2023-05-03T06:12:04.652Z,11.50
2023-05-03T06:14:35.068Z,9.07
2023-05-03T06:17:03.995Z,10.40
2023-05-03T06:19:31.956Z,6.60
2023-05-03T06:22:12.699Z,9.80
2023-05-03T06:24:48.524Z,12.33
2023-05-03T06:27:16.778Z,6.17
2023-05-03T06:29:45.652Z,10.30
2023-05-03T06:32:15.519Z,12.20
2023-05-03T06:34:43.696Z,9.37
2023-05-03T06:37:11.926Z,7.50
2023-05-03T06:39:39.819Z,8.87
2023-05-03T06:42:09.009Z,6.90
2023-05-03T06:44:40.111Z,19.63
2023-05-03T06:47:08.363Z,7.50
2023-05-03T06:49:36.864Z,9.50
2023-05-03T06:52:05.081Z,7.20
2023-05-03T06:54:33.865Z,6.37
2023-05-03T06:57:01.715Z,7.77
2023-05-03T06:59:30.894Z,10.33
2023-05-03T07:01:58.973Z,11.97
2023-05-03T07:04:26.721Z,12.17
2023-05-03T07:06:56.862Z,11.10
2023-05-03T07:09:41.463Z,12.67
2023-05-03T07:12:11.352Z,10.87
2023-05-03T07:14:40.697Z,12.00
2023-05-03T07:17:08.776Z,11.87
2023-05-03T07:19:37.272Z,12.90
2023-05-03T07:22:05.857Z,10.33
2023-05-03T07:24:33.528Z,11.23
2023-05-03T07:27:01.600Z,10.33
2023-05-03T07:29:29.436Z,12.00
2023-05-03T07:31:59.362Z,12.17
2023-05-03T07:34:27.149Z,19.40
2023-05-03T07:36:55.078Z,9.70
2023-05-03T07:39:22.740Z,8.63
2023-05-03T07:41:51.145Z,12.13
2023-05-03T07:44:18.820Z,11.13
2023-05-03T07:46:46.941Z,10.40
2023-05-03T07:49:16.392Z,17.87
2023-05-03T07:51:44.310Z,14.47
2023-05-03T07:54:12.167Z,11.40
2023-05-03T07:56:39.843Z,13.50
2023-05-03T07:59:09.979Z,9.73
2023-05-03T08:01:38.568Z,10.13
2023-05-03T08:04:06.688Z,10.10
2023-05-03T08:06:38.510Z,13.33
2023-05-03T08:09:06.608Z,9.60
2023-05-03T08:11:34.265Z,11.60
2023-05-03T08:14:02.742Z,8.67
2023-05-03T08:16:30.925Z,12.33
2023-05-03T08:18:59.021Z,17.40
2023-05-03T08:21:28.517Z,9.03
2023-05-03T08:23:57.844Z,12.10
2023-05-03T08:26:28.878Z,10.90
2023-05-03T08:28:56.661Z,18.20
2023-05-03T08:31:24.484Z,11.83
2023-05-03T08:33:53.932Z,14.83
2023-05-03T08:36:21.892Z,10.73
2023-05-03T08:38:50.468Z,14.13
2023-05-03T08:41:22.785Z,10.33
2023-05-03T08:43:52.998Z,11.13
2023-05-03T08:46:21.678Z,11.53
2023-05-03T08:48:50.492Z,9.53
2023-05-03T08:51:18.565Z,9.83
2023-05-03T08:53:46.486Z,12.83
2023-05-03T08:56:18.036Z,10.50
2023-05-03T08:58:47.077Z,14.27
2023-05-03T09:01:14.972Z,10.30
2023-05-03T09:03:49.679Z,10.43
2023-05-03T09:06:21.616Z,10.90
2023-05-03T09:08:50.332Z,11.53
2023-05-03T09:11:24.525Z,13.13
2023-05-03T09:13:54.172Z,12.90
2023-05-03T09:16:23.857Z,12.33
2023-05-03T09:19:01.455Z,12.73
2023-05-03T09:21:29.436Z,10.70
2023-05-03T09:23:57.228Z,10.67
2023-05-03T09:26:29.144Z,11.10
2023-05-03T09:28:58.815Z,10.53
2023-05-03T09:31:27.860Z,12.23
2023-05-03T09:33:56.335Z,11.73
2023-05-03T09:36:24.010Z,11.30
2023-05-03T09:38:52.464Z,10.40
2023-05-03T09:41:27.581Z,12.13
2023-05-03T09:43:56.808Z,11.53
2023-05-03T09:46:26.529Z,11.30
2023-05-03T09:48:56.949Z,9.70
2023-05-03T09:51:25.364Z,16.97
2023-05-03T09:53:53.402Z,12.87
2023-05-03T09:56:26.547Z,13.90
2023-05-03T09:58:54.815Z,10.00
2023-05-03T10:01:23.503Z,9.10
2023-05-03T10:03:54.486Z,15.70
2023-05-03T10:06:26.475Z,10.80
2023-05-03T10:08:58.896Z,8.50
2023-05-03T10:11:27.951Z,12.77
2023-05-03T10:13:56.412Z,13.23
2023-05-03T10:16:27.450Z,11.00
2023-05-03T10:19:00.040Z,10.90
2023-05-03T10:21:34.623Z,9.93
2023-05-03T10:24:12.684Z,13.07
2023-05-03T10:26:44.547Z,24.73
2023-05-03T10:29:31.752Z,11.07
2023-05-03T10:32:00.162Z,15.50
2023-05-03T10:34:32.235Z,10.10
2023-05-03T10:37:02.759Z,12.23
2023-05-03T10:39:31.817Z,22.27
2023-05-03T10:42:01.545Z,9.80
2023-05-03T10:44:29.944Z,11.27
2023-05-03T10:46:58.328Z,11.30
2023-05-03T10:49:27.522Z,14.00
2023-05-03T10:51:58.709Z,11.10
2023-05-03T10:54:27.330Z,11.30
2023-05-03T10:56:56.099Z,14.93
2023-05-03T10:59:25.459Z,14.83
2023-05-03T11:01:54.400Z,11.83
2023-05-03T11:04:35.049Z,11.77
2023-05-03T11:07:05.002Z,10.87
2023-05-03T11:09:34.054Z,13.30
2023-05-03T11:12:05.189Z,12.80
2023-05-03T11:14:32.956Z,10.57
2023-05-03T11:17:01.279Z,12.10
2023-05-03T11:19:30.028Z,10.47
2023-05-03T11:21:59.129Z,10.40
2023-05-03T11:24:28.330Z,10.67
2023-05-03T11:26:57.099Z,10.30
2023-05-03T11:29:26.038Z,10.73
2023-05-03T11:31:54.490Z,13.27
2023-05-03T11:34:22.437Z,13.80
2023-05-03T11:36:51.316Z,10.43
2023-05-03T11:39:20.861Z,11.37
2023-05-03T11:42:04.774Z,13.20
2023-05-03T11:44:32.746Z,13.67
2023-05-03T11:47:00.929Z,15.70
2023-05-03T11:49:28.950Z,15.23
2023-05-03T11:51:57.172Z,13.67
2023-05-03T11:54:27.637Z,10.63
2023-05-03T11:57:00.763Z,14.80
2023-05-03T11:59:39.458Z,13.03
2023-05-03T12:02:09.666Z,9.17
2023-05-03T12:04:43.453Z,10.27
2023-05-03T12:07:15.030Z,10.77
2023-05-03T12:09:52.919Z,10.00
2023-05-03T12:12:28.691Z,10.67
2023-05-03T12:15:04.294Z,9.80
2023-05-03T12:17:39.513Z,14.60
2023-05-03T12:22:51.220Z,11.43
2023-05-03T12:25:21.171Z,13.47
2023-05-03T12:28:04.956Z,11.17
2023-05-03T12:30:40.674Z,13.90
2023-05-03T12:33:10.317Z,13.73
2023-05-03T12:35:40.859Z,18.20
2023-05-03T12:38:11.245Z,15.80
2023-05-03T12:40:40.852Z,17.90
2023-05-03T12:43:08.982Z,12.63
2023-05-03T12:45:40.157Z,22.10
2023-05-03T12:48:10.469Z,14.30
2023-05-03T12:50:39.589Z,12.73
2023-05-03T12:53:10.239Z,15.10
2023-05-03T12:55:43.119Z,13.30
2023-05-03T13:00:53.023Z,15.47
2023-05-03T13:03:36.610Z,12.97
2023-05-03T13:06:13.960Z,12.13
2023-05-03T13:11:13.946Z,12.20
2023-05-03T13:13:41.841Z,13.20
2023-05-03T13:16:10.288Z,15.50
2023-05-03T13:18:39.402Z,13.47
2023-05-03T13:21:08.046Z,18.07
2023-05-03T13:23:36.363Z,14.67
2023-05-03T13:26:04.105Z,11.90
2023-05-03T13:28:32.471Z,16.97
2023-05-03T13:31:00.516Z,12.00
2023-05-03T13:33:28.619Z,11.57
2023-05-03T13:36:22.824Z,22.03
2023-05-03T13:38:51.800Z,14.00
2023-05-03T13:41:20.107Z,13.37
2023-05-03T13:43:48.494Z,19.17
2023-05-03T13:46:16.919Z,12.10
2023-05-03T13:48:45.152Z,15.50
2023-05-03T13:51:13.865Z,13.43
2023-05-03T13:53:43.979Z,13.47
2023-05-03T13:56:11.942Z,18.13
2023-05-03T13:58:41.455Z,103.07
2023-05-03T14:01:10.012Z,139.30
2023-05-03T14:03:37.974Z,42.47
2023-05-03T14:06:08.416Z,38.35
2023-05-03T14:08:36.508Z,19.93
2023-05-03T14:11:06.594Z,26.23
2023-05-03T14:13:47.560Z,21.90
2023-05-03T14:16:35.689Z,15.47
2023-05-03T14:19:04.466Z,17.23
2023-05-03T14:21:32.766Z,22.50
2023-05-03T14:24:00.637Z,13.97
2023-05-03T14:26:30.448Z,16.43
2023-05-03T14:28:58.209Z,17.07
2023-05-03T14:31:25.990Z,15.17
2023-05-03T14:33:55.017Z,19.20
2023-05-03T14:36:23.138Z,18.67
2023-05-03T14:38:51.340Z,14.93
2023-05-03T14:41:19.272Z,12.70
2023-05-03T14:43:48.486Z,15.83
2023-05-03T14:46:16.409Z,29.07
2023-05-03T14:48:44.408Z,18.33
2023-05-03T14:51:12.395Z,13.90
2023-05-03T14:53:40.277Z,15.90
2023-05-03T14:56:08.839Z,16.27
2023-05-03T14:58:36.664Z,19.00
2023-05-03T15:01:06.684Z,20.53
2023-05-03T15:03:57.214Z,20.67
2023-05-03T15:06:25.654Z,14.90
2023-05-03T15:08:54.501Z,15.57
2023-05-03T15:11:22.552Z,15.17
2023-05-03T15:13:51.113Z,16.20
2023-05-03T15:16:21.058Z,13.87
2023-05-03T15:18:49.393Z,14.30
2023-05-03T15:21:19.676Z,15.70
2023-05-03T15:23:48.426Z,19.40
2023-05-03T15:26:16.554Z,20.03
2023-05-03T15:28:44.692Z,16.50
2023-05-03T15:31:14.158Z,14.40
2023-05-03T15:33:44.898Z,16.13
2023-05-03T15:36:14.875Z,18.53
2023-05-03T15:38:43.123Z,16.10
2023-05-03T15:41:11.454Z,17.50
2023-05-03T15:43:39.892Z,20.57
2023-05-03T15:46:08.131Z,14.50
2023-05-03T15:48:36.269Z,17.30
2023-05-03T15:51:05.832Z,15.77
2023-05-03T15:53:34.142Z,14.90
2023-05-03T15:56:02.523Z,13.70
2023-05-03T15:58:30.939Z,17.03
2023-05-03T16:00:59.365Z,15.77
2023-05-03T16:03:28.604Z,16.20
2023-05-03T16:05:56.930Z,16.50
2023-05-03T16:08:26.357Z,16.37
2023-05-03T16:10:54.109Z,18.03
2023-05-03T16:13:21.953Z,15.80
2023-05-03T16:15:52.548Z,15.40
2023-05-03T16:18:20.954Z,16.00
2023-05-03T16:20:49.513Z,13.93
2023-05-03T16:23:17.572Z,19.07
2023-05-03T16:25:47.332Z,17.80
2023-05-03T16:28:16.131Z,21.90
2023-05-03T16:30:43.850Z,16.00
2023-05-03T16:33:11.924Z,16.40
2023-05-03T16:35:40.148Z,15.33
2023-05-03T16:38:07.873Z,18.67
2023-05-03T16:40:36.955Z,18.83
2023-05-03T16:43:08.185Z,13.30
2023-05-03T16:45:35.888Z,20.00
2023-05-03T16:48:06.063Z,19.67
2023-05-03T16:50:37.213Z,17.00
2023-05-03T16:53:05.117Z,17.10
2023-05-03T16:55:32.910Z,18.27
2023-05-03T16:58:00.897Z,14.93
2023-05-03T17:00:32.272Z,19.80
2023-05-03T17:03:00.828Z,21.50
2023-05-03T17:05:33.038Z,20.80
2023-05-03T17:08:03.231Z,15.43
2023-05-03T17:10:31.472Z,15.03
2023-05-03T17:13:01.054Z,13.73
2023-05-03T17:15:32.887Z,16.40
2023-05-03T17:18:04.311Z,20.00
2023-05-03T17:20:33.084Z,15.27
2023-05-03T17:23:01.161Z,19.43
2023-05-03T17:25:30.995Z,15.00
2023-05-03T17:27:58.706Z,15.10
2023-05-03T17:30:26.864Z,14.10
2023-05-03T17:32:56.498Z,19.53
2023-05-03T17:35:24.809Z,15.87
2023-05-03T17:37:52.726Z,17.03
2023-05-03T17:40:21.224Z,18.10
2023-05-03T17:42:50.010Z,14.80
2023-05-03T17:45:18.624Z,13.90
2023-05-03T17:47:46.896Z,14.30
2023-05-03T17:50:16.520Z,15.70
2023-05-03T17:52:44.867Z,15.23
2023-05-03T17:55:13.364Z,14.17
2023-05-03T17:57:41.329Z,15.03
2023-05-03T18:00:11.421Z,15.03
2023-05-03T18:02:39.525Z,18.53
2023-05-03T18:05:07.787Z,19.43
2023-05-03T18:07:37.222Z,16.00
2023-05-03T18:10:05.547Z,17.57
2023-05-03T18:12:33.584Z,23.03
2023-05-03T18:15:01.537Z,14.60
2023-05-03T18:17:30.054Z,14.87
2023-05-03T18:19:57.819Z,24.73
2023-05-03T18:22:27.827Z,16.40
2023-05-03T18:24:58.985Z,16.07
2023-05-03T18:27:26.705Z,21.17
2023-05-03T18:29:55.200Z,16.70
2023-05-03T18:32:23.830Z,19.10
2023-05-03T18:34:51.676Z,17.87
2023-05-03T18:37:19.333Z,17.77
2023-05-03T18:39:46.993Z,18.87
2023-05-03T18:42:19.451Z,16.07
2023-05-03T18:44:47.218Z,18.50
2023-05-03T18:47:16.272Z,16.73
2023-05-03T18:49:48.642Z,18.70
2023-05-03T18:52:16.323Z,19.77
2023-05-03T18:54:43.993Z,23.13
2023-05-03T18:57:13.217Z,19.30
2023-05-03T18:59:52.590Z,19.13
2023-05-03T19:02:30.516Z,23.13
2023-05-03T19:04:58.802Z,24.13
2023-05-03T19:07:26.953Z,16.50
2023-05-03T19:09:55.353Z,15.00
2023-05-03T19:12:23.237Z,20.43
2023-05-03T19:14:52.708Z,18.07
2023-05-03T19:17:20.763Z,18.50
2023-05-03T19:19:48.814Z,21.37
2023-05-03T19:22:16.545Z,14.70
2023-05-03T19:24:44.952Z,16.50
2023-05-03T19:27:12.763Z,17.70
2023-05-03T19:29:40.491Z,13.60
2023-05-03T19:32:09.946Z,21.70
2023-05-03T19:34:37.743Z,18.27
2023-05-03T19:37:05.771Z,20.40
2023-05-03T19:39:35.826Z,20.10
2023-05-03T19:42:03.972Z,18.47
2023-05-03T19:44:31.868Z,17.00
2023-05-03T19:46:59.832Z,21.87
2023-05-03T19:49:29.148Z,19.40
2023-05-03T19:51:57.069Z,21.10
2023-05-03T19:54:25.021Z,15.20
2023-05-03T19:56:52.774Z,18.70
2023-05-03T19:59:20.623Z,22.30
2023-05-03T20:01:48.322Z,20.73
2023-05-03T20:04:16.543Z,19.87
2023-05-03T20:06:45.800Z,18.13
2023-05-03T20:09:13.535Z,21.33
2023-05-03T20:11:41.367Z,21.10
2023-05-03T20:14:09.426Z,20.10
2023-05-03T20:16:38.952Z,21.43
2023-05-03T20:19:07.097Z,22.87
2023-05-03T20:21:35.076Z,17.70
2023-05-03T20:24:10.521Z,27.17
2023-05-03T20:26:39.204Z,26.37
2023-05-03T20:29:06.881Z,20.63
2023-05-03T20:31:34.659Z,24.37
2023-05-03T20:34:02.580Z,22.67
2023-05-03T20:36:32.387Z,24.70
2023-05-03T20:38:59.982Z,25.97
2023-05-03T20:41:29.606Z,21.47
2023-05-03T20:43:59.124Z,25.37
2023-05-03T20:46:27.128Z,25.60
2023-05-03T20:48:54.953Z,22.97
2023-05-03T20:51:24.242Z,22.90
2023-05-03T20:53:52.389Z,22.00
2023-05-03T20:56:22.480Z,24.30
2023-05-03T20:58:51.719Z,30.60
2023-05-03T21:01:19.808Z,32.77
2023-05-03T21:03:47.704Z,33.73
2023-05-03T21:06:15.855Z,27.40
2023-05-03T21:08:43.728Z,26.33
2023-05-03T21:11:11.488Z,28.00
2023-05-03T21:13:39.338Z,22.90
2023-05-03T21:16:09.379Z,23.83
2023-05-03T21:18:37.410Z,23.00
2023-05-03T21:21:05.216Z,20.80
2023-05-03T21:23:33.035Z,23.57
2023-05-03T21:26:01.045Z,24.43
2023-05-03T21:28:30.365Z,28.13
2023-05-03T21:30:58.060Z,27.77
2023-05-03T21:33:27.210Z,21.40
2023-05-03T21:35:55.101Z,24.90
2023-05-03T21:38:23.047Z,21.80
2023-05-03T21:40:51.026Z,21.37
2023-05-03T21:43:19.724Z,23.43
2023-05-03T21:45:48.553Z,24.13
2023-05-03T21:48:16.460Z,19.30
2023-05-03T21:50:45.959Z,20.57
2023-05-03T21:53:13.997Z,21.40
2023-05-03T21:55:41.832Z,21.40
2023-05-03T21:58:09.720Z,24.57
2023-05-03T22:00:37.436Z,23.43
2023-05-03T22:03:05.318Z,19.23
2023-05-03T22:05:33.188Z,23.47
2023-05-03T22:08:02.797Z,21.70
2023-05-03T22:10:30.463Z,19.83
2023-05-03T22:12:58.305Z,25.57
2023-05-03T22:15:26.479Z,24.33
2023-05-03T22:17:54.282Z,25.63
2023-05-03T22:20:22.031Z,19.80
2023-05-03T22:22:50.533Z,19.97
2023-05-03T22:25:26.016Z,20.80
2023-05-03T22:27:54.485Z,24.97
2023-05-03T22:30:22.259Z,24.90
2023-05-03T22:32:50.222Z,22.47
2023-05-03T22:35:18.129Z,23.07
2023-05-03T22:37:45.782Z,22.27
2023-05-03T22:40:13.560Z,22.20
2023-05-03T22:42:42.928Z,22.80
2023-05-03T22:45:11.404Z,20.53
2023-05-03T22:47:39.655Z,21.60
2023-05-03T22:50:08.389Z,20.37
2023-05-03T22:52:36.284Z,19.67
2023-05-03T22:55:04.567Z,21.40
2023-05-03T22:57:33.120Z,19.60
2023-05-03T23:00:02.480Z,19.33
2023-05-03T23:02:30.626Z,22.40
2023-05-03T23:04:58.656Z,20.77
2023-05-03T23:07:26.704Z,21.70
2023-05-03T23:10:01.522Z,20.93
2023-05-03T23:12:29.491Z,20.00
2023-05-03T23:14:57.267Z,18.03
2023-05-03T23:17:26.859Z,23.77
2023-05-03T23:19:54.626Z,15.90
2023-05-03T23:22:22.614Z,20.03
2023-05-03T23:24:50.730Z,20.00
2023-05-03T23:27:18.864Z,21.63
2023-05-03T23:29:48.217Z,53.47
2023-05-03T23:32:17.225Z,21.03
2023-05-03T23:34:47.218Z,19.90
2023-05-03T23:37:15.330Z,28.43
2023-05-03T23:39:44.112Z,21.47
2023-05-03T23:42:12.023Z,19.20
2023-05-03T23:44:53.733Z,15.27
2023-05-03T23:47:22.882Z,20.50
2023-05-03T23:49:51.975Z,18.33
2023-05-03T23:52:20.364Z,14.80
2023-05-03T23:54:48.381Z,16.20
2023-05-03T23:57:16.171Z,15.63
2023-05-03T23:59:44.194Z,17.40
